TUI093 LIPR-LGRP
Flight info
| Callsign | TUI093 |
|---|---|
| Flight time | N/A |
| Altitude | 37000 |
| Route | ANC L612 KAPPO M603 XAPAT Q772 TIGRA UL995 KRK UL53 KOR UN604 ATV UL607 KEA UL995 CODIC |
| Aircraft | B38M/M-SDE1FGHILORVWXY/HB1 |
Departure
| Time | N/A |
|---|---|
| Airport | Federico Fellini International Airport (LIPR) |
Arrival
| Time | 2026-05-04 17:35 |
|---|---|
| Airport | Rhodes International Airport "Diagoras" (LGRP) |
| Time | Latitude | Longitude | Altitude | Speed | Heading |
|---|---|---|---|---|---|
| 2026-05-04 16:20 | 40.15672 | 18.87254 | 37110 ft | 498 kts | 135° |
| 2026-05-04 16:22 | 40.03706 | 19.03511 | 37127 ft | 495 kts | 124° |
| 2026-05-04 16:23 | 39.91444 | 19.25224 | 37104 ft | 496 kts | 124° |
| 2026-05-04 16:25 | 39.79140 | 19.46886 | 37125 ft | 496 kts | 124° |
| 2026-05-04 16:26 | 39.64777 | 19.71983 | 37104 ft | 496 kts | 124° |
| 2026-05-04 16:28 | 39.54457 | 19.89896 | 37105 ft | 496 kts | 125° |
| 2026-05-04 16:29 | 39.40432 | 20.15295 | 37123 ft | 495 kts | 121° |
| 2026-05-04 16:31 | 39.30936 | 20.33847 | 37102 ft | 495 kts | 121° |
| 2026-05-04 16:32 | 39.19530 | 20.56100 | 37114 ft | 498 kts | 121° |
| 2026-05-04 16:33 | 39.11875 | 20.70988 | 37112 ft | 498 kts | 121° |
| 2026-05-04 16:34 | 39.06120 | 20.82135 | 37146 ft | 498 kts | 121° |
| 2026-05-04 16:35 | 38.94560 | 21.04403 | 37120 ft | 499 kts | 121° |
| 2026-05-04 16:36 | 38.88760 | 21.15515 | 37142 ft | 499 kts | 121° |
| 2026-05-04 16:37 | 38.82988 | 21.26535 | 37121 ft | 498 kts | 121° |
| 2026-05-04 16:38 | 38.75887 | 21.40042 | 37120 ft | 498 kts | 121° |
| 2026-05-04 16:39 | 38.66180 | 21.58418 | 37110 ft | 498 kts | 121° |
| 2026-05-04 16:40 | 38.58391 | 21.73091 | 37107 ft | 498 kts | 121° |
| 2026-05-04 16:41 | 38.48612 | 21.91414 | 37115 ft | 500 kts | 122° |
| 2026-05-04 16:43 | 38.38786 | 22.09716 | 37110 ft | 500 kts | 122° |
| 2026-05-04 16:43 | 38.32872 | 22.20684 | 37112 ft | 500 kts | 122° |
| 2026-05-04 16:45 | 38.20972 | 22.42629 | 37129 ft | 503 kts | 122° |
| 2026-05-04 16:46 | 38.11002 | 22.60902 | 37119 ft | 504 kts | 122° |
| 2026-05-04 16:47 | 38.02995 | 22.75511 | 37117 ft | 504 kts | 122° |
| 2026-05-04 16:48 | 37.95049 | 22.90039 | 37104 ft | 501 kts | 118° |
| 2026-05-04 16:49 | 37.92988 | 22.98222 | 37134 ft | 486 kts | 89° |
| 2026-05-04 16:49 | 37.92482 | 23.06774 | 37132 ft | 485 kts | 89° |
| 2026-05-04 16:50 | 37.91661 | 23.23824 | 37125 ft | 486 kts | 88° |
| 2026-05-04 16:51 | 37.91053 | 23.36634 | 37130 ft | 486 kts | 88° |
| 2026-05-04 16:52 | 37.90222 | 23.53693 | 37130 ft | 484 kts | 88° |
| 2026-05-04 16:53 | 37.89583 | 23.66462 | 37130 ft | 485 kts | 89° |
| 2026-05-04 16:53 | 37.88411 | 23.79183 | 37128 ft | 492 kts | 107° |
| 2026-05-04 16:54 | 37.86874 | 23.83061 | 37092 ft | 497 kts | 123° |
| 2026-05-04 16:55 | 37.73500 | 24.03452 | 37134 ft | 503 kts | 128° |
| 2026-05-04 16:56 | 37.62216 | 24.20239 | 37133 ft | 503 kts | 129° |
| 2026-05-04 16:57 | 37.55793 | 24.30640 | 37102 ft | 496 kts | 111° |
| 2026-05-04 16:58 | 37.51284 | 24.46945 | 37119 ft | 491 kts | 105° |
| 2026-05-04 17:00 | 37.44868 | 24.71413 | 37131 ft | 491 kts | 105° |
| 2026-05-04 17:01 | 37.39496 | 24.91733 | 37128 ft | 491 kts | 105° |
| 2026-05-04 17:02 | 37.35174 | 25.07977 | 37120 ft | 487 kts | 105° |
| 2026-05-04 17:03 | 37.31937 | 25.20084 | 37133 ft | 487 kts | 105° |
| 2026-05-04 17:03 | 37.28685 | 25.32189 | 37110 ft | 487 kts | 105° |
| 2026-05-04 17:04 | 37.23789 | 25.48069 | 37108 ft | 488 kts | 109° |
| 2026-05-04 17:05 | 37.18598 | 25.63740 | 37103 ft | 488 kts | 110° |
| 2026-05-04 17:06 | 37.14673 | 25.75501 | 37102 ft | 487 kts | 110° |
| 2026-05-04 17:07 | 37.11162 | 25.85982 | 37092 ft | 487 kts | 110° |
| 2026-05-04 17:07 | 37.08105 | 25.95076 | 37096 ft | 487 kts | 110° |
| 2026-05-04 17:08 | 37.04151 | 26.06798 | 37081 ft | 488 kts | 110° |
| 2026-05-04 17:09 | 37.01505 | 26.14618 | 37071 ft | 488 kts | 110° |
| 2026-05-04 17:09 | 36.98845 | 26.22461 | 37083 ft | 490 kts | 110° |
| 2026-05-04 17:10 | 36.92196 | 26.42068 | 37073 ft | 490 kts | 111° |
| 2026-05-04 17:11 | 36.89527 | 26.49905 | 37070 ft | 490 kts | 111° |
| 2026-05-04 17:11 | 36.86847 | 26.57737 | 36755 ft | 490 kts | 111° |
| 2026-05-04 17:12 | 36.85494 | 26.61684 | 35778 ft | 495 kts | 111° |
| 2026-05-04 17:12 | 36.82803 | 26.69519 | 34432 ft | 493 kts | 110° |
| 2026-05-04 17:13 | 36.78846 | 26.81013 | 32195 ft | 478 kts | 110° |
| 2026-05-04 17:14 | 36.74938 | 26.92318 | 29063 ft | 469 kts | 110° |
| 2026-05-04 17:14 | 36.73643 | 26.96055 | 27792 ft | 470 kts | 110° |
| 2026-05-04 17:14 | 36.71068 | 27.03473 | 25837 ft | 462 kts | 110° |
| 2026-05-04 17:15 | 36.69797 | 27.07129 | 24936 ft | 457 kts | 110° |
| 2026-05-04 17:15 | 36.67284 | 27.14339 | 23127 ft | 450 kts | 110° |
| 2026-05-04 17:16 | 36.64812 | 27.21409 | 21524 ft | 437 kts | 110° |
| 2026-05-04 17:16 | 36.61259 | 27.31540 | 19939 ft | 429 kts | 110° |
| 2026-05-04 17:17 | 36.60058 | 27.34956 | 19394 ft | 432 kts | 110° |
| 2026-05-04 17:17 | 36.56450 | 27.45199 | 17714 ft | 428 kts | 110° |
| 2026-05-04 17:18 | 36.55257 | 27.48577 | 17165 ft | 425 kts | 110° |
| 2026-05-04 17:18 | 36.52888 | 27.55275 | 16094 ft | 420 kts | 110° |
| 2026-05-04 17:19 | 36.50547 | 27.61880 | 15042 ft | 414 kts | 110° |
| 2026-05-04 17:19 | 36.48236 | 27.68388 | 14027 ft | 409 kts | 111° |
| 2026-05-04 17:20 | 36.46331 | 27.74946 | 12863 ft | 399 kts | 96° |
| 2026-05-04 17:20 | 36.45411 | 27.81683 | 11912 ft | 391 kts | 96° |
| 2026-05-04 17:20 | 36.44964 | 27.84988 | 11566 ft | 384 kts | 96° |
| 2026-05-04 17:21 | 36.43984 | 27.91305 | 11218 ft | 365 kts | 108° |
| 2026-05-04 17:21 | 36.41244 | 27.96433 | 10903 ft | 348 kts | 126° |
| 2026-05-04 17:22 | 36.39820 | 27.98764 | 10767 ft | 338 kts | 126° |
| 2026-05-04 17:22 | 36.38409 | 28.01058 | 10616 ft | 330 kts | 126° |
| 2026-05-04 17:23 | 36.34382 | 28.07570 | 10222 ft | 305 kts | 126° |
| 2026-05-04 17:23 | 36.33153 | 28.09671 | 10051 ft | 298 kts | 124° |
| 2026-05-04 17:23 | 36.30759 | 28.13817 | 9474 ft | 294 kts | 124° |
| 2026-05-04 17:24 | 36.29563 | 28.15878 | 9204 ft | 296 kts | 124° |
| 2026-05-04 17:24 | 36.25915 | 28.22145 | 8316 ft | 297 kts | 123° |
| 2026-05-04 17:25 | 36.24711 | 28.24209 | 8038 ft | 294 kts | 123° |
| 2026-05-04 17:25 | 36.23575 | 28.28003 | 7477 ft | 277 kts | 82° |
| 2026-05-04 17:26 | 36.24967 | 28.32055 | 6915 ft | 248 kts | 38° |
| 2026-05-04 17:26 | 36.29313 | 28.34613 | 6121 ft | 223 kts | 15° |
| 2026-05-04 17:27 | 36.32163 | 28.35669 | 5559 ft | 205 kts | 13° |
| 2026-05-04 17:27 | 36.34783 | 28.36525 | 5118 ft | 184 kts | 12° |
| 2026-05-04 17:28 | 36.37145 | 28.37260 | 4765 ft | 168 kts | 10° |
| 2026-05-04 17:29 | 36.40730 | 28.38336 | 4362 ft | 184 kts | 11° |
| 2026-05-04 17:29 | 36.44475 | 28.38600 | 4041 ft | 179 kts | 342° |
| 2026-05-04 17:30 | 36.47116 | 28.35582 | 3753 ft | 182 kts | 299° |
| 2026-05-04 17:31 | 36.47439 | 28.32371 | 3594 ft | 202 kts | 268° |
| 2026-05-04 17:31 | 36.45978 | 28.27193 | 2823 ft | 215 kts | 257° |
| 2026-05-04 17:32 | 36.44982 | 28.23822 | 2230 ft | 198 kts | 258° |
| 2026-05-04 17:33 | 36.43669 | 28.19523 | 1450 ft | 153 kts | 255° |
| 2026-05-04 17:33 | 36.43254 | 28.18332 | 1151 ft | 147 kts | 256° |
| 2026-05-04 17:34 | 36.42303 | 28.14710 | 786 ft | 147 kts | 260° |
| 2026-05-04 17:34 | 36.41968 | 28.13484 | 595 ft | 151 kts | 258° |
| 2026-05-04 17:35 | 36.40951 | 28.10027 | 40 ft | 138 kts | 253° |
| 2026-05-04 17:35 | 36.40493 | 28.08459 | 30 ft | 45 kts | 249° |
| 2026-05-04 17:35 | 36.40398 | 28.08147 | 30 ft | 31 kts | 245° |
| 2026-05-04 17:36 | 36.40292 | 28.07970 | 31 ft | 23 kts | 224° |
| 2026-05-04 17:36 | 36.40188 | 28.07865 | 30 ft | 16 kts | 199° |
| 2026-05-04 17:36 | 36.40149 | 28.07911 | 30 ft | 8 kts | 69° |
| 2026-05-04 17:36 | 36.40180 | 28.08021 | 30 ft | 21 kts | 72° |
| 2026-05-04 17:37 | 36.40242 | 28.08231 | 31 ft | 29 kts | 69° |
| 2026-05-04 17:37 | 36.40302 | 28.08441 | 31 ft | 26 kts | 70° |
| 2026-05-04 17:37 | 36.40363 | 28.08645 | 30 ft | 26 kts | 70° |
| 2026-05-04 17:37 | 36.40398 | 28.08791 | 30 ft | 18 kts | 83° |
| 2026-05-04 17:38 | 36.40396 | 28.08956 | 31 ft | 20 kts | 86° |
| 2026-05-04 17:38 | 36.40421 | 28.09087 | 30 ft | 9 kts | 81° |
| 2026-05-04 17:38 | 36.40391 | 28.09125 | 30 ft | 6 kts | 161° |
| 2026-05-04 17:38 | 36.40367 | 28.09136 | 30 ft | 2 kts | 160° |
| 2026-05-04 17:39 | 36.40365 | 28.09137 | 30 ft | 0 kts | 160° |